This is the latest recevied weather packets stored in our database for station/object YO4TNV-15. If no packets are shown the sender has not sent any weather packets the latest 10 day(s).
| Time | Temp. | Humidity | Pressure | Rain* | Wind** | Luminosity | Snow |
|---|---|---|---|---|---|---|---|
| 1777796538 | 20.56° C | 23% | 1009.8 hPa | - | - | - | - |
| 1777796528 | 20.56° C | 23% | 1009.8 hPa | - | - | - | - |
| 1777795638 | 18.89° C | 25% | 1009.8 hPa | - | - | - | - |
| 1777795628 | 18.89° C | 25% | 1009.8 hPa | - | - | - | - |
| 1777794738 | 18.33° C | 26% | 1009.9 hPa | - | - | - | - |
| 1777794728 | 18.33° C | 26% | 1009.9 hPa | - | - | - | - |
| 1777793838 | 15.56° C | 28% | 1009.8 hPa | - | - | - | - |
| 1777793827 | 15.56° C | 28% | 1009.8 hPa | - | - | - | - |
| 1777792938 | 17.22° C | 29% | 1010.1 hPa | - | - | - | - |
| 1777792927 | 17.22° C | 29% | 1010.1 hPa | - | - | - | - |
| 1777792038 | 16.11° C | 32% | 1010.1 hPa | - | - | - | - |
| 1777792027 | 16.11° C | 32% | 1010.1 hPa | - | - | - | - |
| 1777791138 | 15.56° C | 34% | 1010 hPa | - | - | - | - |
| 1777791127 | 15.56° C | 34% | 1010 hPa | - | - | - | - |
| 1777790237 | 17.22° C | 33% | 1010 hPa | - | - | - | - |
| 1777790227 | 17.22° C | 33% | 1010 hPa | - | - | - | - |
| 1777789327 | 14.44° C | 36% | 1010 hPa | - | - | - | - |
| 1777788438 | 15.56° C | 32% | 1009.9 hPa | - | - | - | - |
| 1777788427 | 15.56° C | 32% | 1009.9 hPa | - | - | - | - |
| 1777787537 | 14.44° C | 36% | 1009.9 hPa | - | - | - | - |
| 1777787526 | 14.44° C | 36% | 1009.9 hPa | - | - | - | - |
| 1777786637 | 14.44° C | 37% | 1009.9 hPa | - | - | - | - |
| 1777786626 | 14.44° C | 37% | 1009.9 hPa | - | - | - | - |
| 1777785738 | 12.78° C | 41% | 1009.8 hPa | - | - | - | - |
| 1777785726 | 12.78° C | 41% | 1009.8 hPa | - | - | - | - |
* Rain since midnight (hover to see other rain measurements)
** Current wind speed in m/s (hover to see current wind gust speed)